Main page
METAR-TAF:

METAR-TAF

Airports :

Ann Arbor Municipal Airport

Ann Arbor, Michigan, United States

latitude: 42-13-26N, longitude: 083-44-24W, elevation: 836 ft

Current weather observation

The report was made 38 minutes ago, at 13:53 UTC
Wind 7 mph from the North/Northwest
Temperature 39°F
Humidity 65%
Pressure 29.59 in. Hg
Visibility: 10 miles
Clear sky

METAR: KARB 231353Z 33006KT 10SM CLR 04/M02 A2959 RMK AO2 SLP025 T00441017 $

Time: 09:31 (14:31 UTC)


TAF: missing

Weather observations and forecasts of more than 4000 airports (METAR and TAF reports).

The available stations are represented by yellow and red dots on the map.

Hover mouse over dot to see the name of the station.

Then click to see weather observations and forecasts.

To change the map : click on the green buttons with a black cross to zoom in, on the green button with a dash to zoom out, or on the green arrows for adjacent maps.


METAR-TAF: